Weather observations for the past three days for
Williamsburg-Whitley County Airport
Metric (Imperial)
Date Time (edt) Wind (kph) Vis. (km) Weather Sky Cond. Temperature (ºC) Relative Humidity Wind Chill (°C) Heat Index (°C) Pressure Precipitation (cm)
Air Dwpt 6 hour altimeter (cm) sea level (mb) 1 hr 3 hr 6 hr
Max. Min.
04 10:35 SE 11 16.09 Fair CLR 16.9 6.8 52% 76.23 0.0
04 10:15 SE 9 16.09 Fair CLR 16.1 6.7 54% 76.25 0.0
04 09:55 Vrbl 9 16.09 A Few Clouds FEW055 14.7 6.4 58% 76.28 0.0
04 09:35 NE 7 16.09 Partly Cloudy SCT060 13.7 6.3 61% 76.28 0.0
04 09:15 SE 6 16.09 Overcast BKN065 OVC095 12.2 5.7 65% 76.25 0.0
04 08:55 SE 7 16.09 Overcast BKN070 OVC090 11.3 5.2 66% 76.25 0.0
04 08:35 SE 13 14.48 Overcast OVC090 11.1 5 66% 76.23 0.0
04 08:15 SE 13 14.48 Mostly Cloudy BKN090 BKN110 10.9 4.8 66% 76.23 0.0
04 07:55 SE 13 14.48 Partly Cloudy SCT100 10 4.6 10 5.1 69% 8 76.17 0.0
04 07:35 SE 13 14.48 Mostly Cloudy BKN100 9.3 4.5 72% 8 76.17 0.0
04 07:15 SE 11 14.48 Mostly Cloudy BKN095 8.9 4.3 73% 7 76.17 0.0
04 06:55 SE 11 16.09 Partly Cloudy SCT095 8.1 4.1 76% 6 76.15 0.0
04 06:35 SE 7 16.09 Partly Cloudy SCT090 7.7 4.1 78% 7 76.15 0.0
04 06:15 Calm 16.09 A Few Clouds FEW090 7 4.1 82% 76.15 0.0
04 05:55 SE 9 16.09 Partly Cloudy SCT090 7.3 4.1 80% 6 76.15 0.0
04 05:35 SE 13 16.09 Partly Cloudy FEW090 SCT140 7.7 4.2 79% 6 76.17 0.0
04 05:15 SE 11 16.09 Partly Cloudy FEW090 SCT140 6.9 4.3 84% 5 76.2 0.0
04 04:55 SE 6 16.09 Partly Cloudy FEW110 SCT140 5.9 4.3 90% 76.25 0.0
04 04:35 Calm 16.09 Partly Cloudy FEW110 SCT140 SCT160 5.9 4.5 91% 76.25 0.0
04 04:15 Calm 16.09 A Few Clouds FEW140 5.6 4.3 91% 76.25 0.0
04 03:55 SE 11 16.09 Fair CLR 6.9 4.5 85% 5 76.2 0.0
04 03:35 SE 11 16.09 A Few Clouds FEW160 6.8 4.2 84% 5 76.23 0.0
04 03:15 SE 6 16.09 Partly Cloudy SCT160 6.8 4.3 84% 76.23 0.0
04 02:55 SE 7 16.09 Mostly Cloudy BKN140 7 4.2 83% 6 76.25 0.0
04 02:35 Calm 16.09 Mostly Cloudy BKN140 6.6 4.2 85% 76.28 0.0
04 02:15 SE 6 16.09 Fair CLR 6.9 4.2 83% 76.25 0.0
04 01:55 SE 6 16.09 A Few Clouds FEW130 7.4 4.4 15.9 6.4 81% 76.28 0.0
04 01:35 SE 6 16.09 Mostly Cloudy BKN130 6.4 4.4 87% 76.28 0.0
04 01:15 Calm 16.09 Overcast OVC130 6.4 4.4 87% 76.28 0.0
04 00:55 Calm 16.09 Overcast OVC140 7.2 4.5 83% 76.28 0.0
04 00:35 Calm 16.09 Overcast BKN130 OVC150 7.7 4.4 80% 76.28 0.0
04 00:15 Calm 16.09 Overcast OVC130 6.9 4.3 84% 76.28 0.0
03 23:55 Calm 16.09 Mostly Cloudy BKN130 7.2 4.3 82% 76.3 0.0
03 23:35 Calm 16.09 A Few Clouds FEW130 8.3 4.2 76% 76.3 0.0
03 23:15 Calm 16.09 Fair CLR 8.7 3.8 72% 76.3 0.0
03 22:55 Calm 16.09 Fair CLR 9.1 3.6 69% 76.28 0.0
03 22:35 Calm 16.09 Fair CLR 9.5 3.2 65% 76.28 0.0
03 22:15 Calm 16.09 Fair CLR 10 3.3 63% 76.25 0.0
03 21:55 Calm 16.09 Fair CLR 11 2.9 58% 76.23 0.0
03 21:35 Calm 16.09 Fair CLR 11.4 2.9 56% 76.23 0.0
03 21:15 Calm 16.09 Fair CLR 13.3 1.6 45% 76.2 0.0
03 20:55 Calm 16.09 Fair CLR 14.2 1.1 41% 76.2 0.0
03 20:35 Calm 16.09 Fair CLR 14.6 0.9 40% 76.2 0.0
03 20:15 W 6 16.09 Fair CLR 15.3 1.6 40% 76.2 0.0
03 19:55 W 6 16.09 Fair CLR 16.4 2.1 19 15.1 38% 76.23 0.0
03 19:35 Vrbl 7 16.09 Fair CLR 17 2.4 38% 76.23 0.0
03 19:15 Vrbl 6 16.09 Fair CLR 17.7 2 35% 76.2 0.0
03 18:55 SW 6 16.09 Fair CLR 18.2 1.4 33% 76.2 0.0
03 18:35 Vrbl 11 16.09 Fair CLR 18.4 1.4 32% 76.23 0.0
03 18:15 SW 15 16.09 Fair CLR 18.5 0.7 30% 76.23 0.0
03 17:55 Vrbl 11 16.09 Fair CLR 18.7 0.5 30% 76.28 0.0
03 17:35 Vrbl 9 16.09 Fair CLR 18.8 1.3 31% 76.28 0.0
03 17:15 SW 13 14.48 Fair CLR 19 1.5 31% 76.3 0.0
03 16:55 S 17 14.48 Fair CLR 18.4 1 31% 76.33 0.0
03 16:35 Vrbl 7 14.48 Fair CLR 18.4 0.9 31% 76.33 0.0
03 16:15 S 11 14.48 Fair CLR 18.2 0.4 30% 76.35 0.0
03 15:55 Vrbl 6 16.09 Fair CLR 18.2 0.3 30% 76.38 0.0
03 15:35 Vrbl 9 16.09 Fair CLR 17.6 0.1 31% 76.4 0.0
03 14:55 Vrbl 9 14.48 Fair CLR 16.7 -0.8 31% 76.48 0.0
03 14:35 Vrbl 9 14.48 Fair CLR 15.9 -1.2 31% 76.48 0.0
03 14:15 Calm 16.09 Fair CLR 15.4 -1.8 31% 76.5 0.0
03 13:55 Vrbl 7 16.09 Fair CLR 15.1 -1.7 15.1 2 32% 76.53 0.0
03 13:35 SW 9 14.48 Fair CLR 14.8 -1.5 33% 76.56 0.0
03 13:15 Vrbl 6 14.48 Fair CLR 14.3 -1.7 33% 76.56 0.0
03 12:55 Vrbl 7 16.09 Fair CLR 13.8 -2.6 32% 76.58 0.0
03 12:35 Vrbl 9 16.09 Fair CLR 13.7 -3.1 31% 76.61 0.0
03 12:15 S 9 16.09 Fair CLR 14 -2.7 32% 76.63 0.0
03 11:55 Calm 16.09 Fair CLR 12.7 -2.3 35% 76.66 0.0
03 11:35 Calm 16.09 Fair CLR 12 -2.8 36% 76.68 0.0
03 11:15 NW 9 16.09 Fair CLR 12.1 -1.9 38% 76.68 0.0
03 10:55 Calm 16.09 Fair CLR 10.9 -2.3 40% 76.66 0.0
03 10:35 Calm 16.09 Fair CLR 11.1 -1.5 42% 76.66 0.0
03 10:15 Calm 16.09 Fair CLR 10.5 0.2 49% 76.68 0.0
03 09:55 Vrbl 6 16.09 Fair CLR 9 3.2 67% 76.68 0.0
03 09:35 Calm 16.09 Fair CLR 8 4.7 80% 76.68 0.0
03 09:15 Calm 16.09 Fair CLR 6.1 4 87% 76.68 0.0
03 08:55 Calm 14.48 A Few Clouds FEW002 4.5 4.4 99% 76.66 0.0
03 08:35 Calm 14.48 Partly Cloudy SCT001 3.9 3.9 100% 76.66 0.0
03 08:15 Calm 16.09 Overcast OVC002 2.6 2.6 100% 76.63 0.0
03 07:55 Calm 0.24 Fog VV002 1.4 1.4 4.8 -0.3 100% 76.63 0.0
03 07:35 Calm 0.24 Fog VV001 0.7 0.7 100% 76.61 0.0
03 07:15 Calm 0.24 Fog VV001 0.1 0.1 100% 76.58 0.0
03 06:55 Calm 2.41 Fog/Mist CLR 0 0 100% 76.56 0.0
03 06:35 Calm 1.61 Fog/Mist CLR 0.3 0.2 99% 76.56 0.0
03 06:15 Calm 16.09 Fair CLR 1.1 1 99% 76.56 0.0
03 05:55 Calm 9.66 Fog/Mist CLR 1.5 1.5 100% 76.53 0.0
03 05:35 Calm 8.05 Fog/Mist CLR 1.5 1.5 100% 76.53 0.0
03 05:15 Calm 14.48 Fair CLR 0.9 0.9 100% 76.53 0.0
03 04:55 Calm 11.27 A Few Clouds FEW060 1.6 1.6 100% 76.53 0.0
03 04:35 Calm 12.87 Fair CLR 2.1 2 99% 76.53 0.0
03 04:15 S 6 16.09 Fair CLR 2.4 2.2 99% 76.5 0.0
03 03:55 Calm 16.09 Fair CLR 2.4 2.2 99% 76.5 0.0
03 03:35 SW 6 16.09 Fair CLR 2.7 2.2 97% 76.5 0.0
03 03:15 Calm 16.09 Fair CLR 3.4 2.7 95% 76.45 0.0
03 02:55 Calm 16.09 Fair CLR 3.5 3.2 98% 76.45 0.0
03 02:35 Calm 16.09 Fair CLR 4.1 3.3 95% 76.45 0.0
03 02:15 Calm 16.09 Fair CLR 4.4 3.6 95% 76.45 0.0
03 01:55 Calm 16.09 A Few Clouds FEW044 4.9 3.5 10.8 4.8 91% 76.45 0.0
03 01:35 Calm 16.09 Mostly Cloudy BKN044 5.1 3.6 90% 76.45 0.0
03 01:15 Calm 16.09 Overcast OVC045 5.5 3.8 89% 76.45 0.0
03 00:55 Calm 16.09 Partly Cloudy SCT049 5.4 3.5 88% 76.43 0.0
03 00:35 Calm 16.09 Fair CLR 5.6 3.6 87% 76.43 0.0
03 00:15 Calm 16.09 Fair CLR 5.9 4 88% 76.4 0.0
02 23:55 Calm 16.09 Partly Cloudy SCT100 7.3 3.7 78% 76.4 0.0
02 23:35 Calm 16.09 Overcast OVC100 7.5 3.8 78% 76.4 0.0
02 23:15 Calm 16.09 Overcast OVC095 7.9 3.8 76% 76.4 0.0
02 22:55 Calm 16.09 Overcast BKN090 OVC110 8.3 3.9 74% 76.4 0.0
02 22:35 N 6 16.09 Overcast BKN100 OVC110 8.5 3.6 72% 76.4 0.0
02 22:15 NW 6 16.09 Overcast OVC090 8.5 3.7 72% 76.38 0.0
02 21:55 Calm 16.09 Overcast BKN095 OVC120 8.7 3.6 71% 76.35 0.0
02 21:35 Calm 16.09 Overcast BKN110 OVC140 9 3.5 69% 76.35 0.0
02 21:15 Calm 16.09 Overcast OVC110 8.9 3.6 70% 76.33 0.0
02 20:55 Calm 16.09 Overcast OVC100 9.6 3 64% 76.3 0.0
02 20:35 Calm 14.48 Overcast BKN100 OVC120 9.6 3 64% 76.3 0.0
02 20:15 Calm 16.09 Mostly Cloudy FEW100 BKN120 10.2 2.8 60% 76.28 0.0
02 19:55 N 9 12.87 A Few Clouds FEW100 11 2.1 15.6 10.9 55% 76.25 0.0
02 19:35 N 7 12.87 Fair CLR 11.9 2.2 52% 76.25 0.0
02 19:15 N 11 16.09 Fair CLR 12.6 2.1 49% 76.23 0.0
02 18:55 NW 6 16.09 Partly Cloudy SCT075 13 2.3 48% 76.23 0.0
02 18:35 NW 9 16.09 Mostly Cloudy BKN075 BKN090 13 2.1 48% 76.23 0.0
02 18:15 NW 11 16.09 Overcast OVC080 13.5 2.3 47% 76.25 0.0
02 17:55 Vrbl 7 14.48 Overcast BKN060 OVC070 12.2 1.7 49% 76.23 0.0
02 17:35 NW 15 14.48 Overcast BKN060 OVC080 12.8 1.4 46% 76.23 0.0
02 17:15 NW 9 14.48 Overcast BKN060 OVC080 12.9 0.2 42% 76.23 0.0
02 16:55 N 15 16.09 Overcast SCT070 BKN090 OVC100 13.4 0.2 41% 76.2 0.0
02 16:35 N 13 14.48 Overcast BKN070 BKN085 OVC100 13.3 0.5 42% 76.2 0.0
02 16:15 N 15 14.48 Overcast SCT060 BKN080 OVC095 13.3 0.8 43% 76.2 0.0
02 15:55 NW 13 16.09 Overcast OVC100 14.4 0.6 39% 76.2 0.0
02 15:35 N 15 16.09 Overcast FEW060 OVC090 14.3 1.4 42% 76.23 0.0
02 15:15 N 15 16.09 Overcast SCT060 BKN080 OVC090 14.4 0.1 38% 76.23 0.0
02 14:55 N 13 16.09 Mostly Cloudy FEW060 BKN090 14.8 0.9 39% 76.23 0.0
02 14:35 NW 13 16.09 Mostly Cloudy FEW060 BKN085 15 0.9 39% 76.23 0.0
02 14:15 Vrbl 9 16.09 Overcast SCT065 OVC080 13.7 0.1 40% 76.25 0.0
02 13:55 Vrbl 6 16.09 Mostly Cloudy BKN060 BKN075 14.1 -0.1 15.3 5.4 38% 76.25 0.0
02 13:35 N 20 14.48 Mostly Cloudy SCT065 BKN080 14.6 0.4 38% 76.25 0.0
02 13:15 N 15 16.09 Mostly Cloudy BKN070 14.1 0.5 40% 76.25 0.0
02 12:55 Vrbl 11 16.09 Mostly Cloudy SCT065 BKN075 14.5 -0.2 37% 76.3 0.0
02 12:35 N 15 16.09 Partly Cloudy SCT060 13.8 -0.1 39% 76.3 0.0
02 12:15 N 9 16.09 A Few Clouds FEW200 14.5 -0.1 37% 76.3 0.0
02 11:55 E 9 16.09 Fair CLR 14.3 1 41% 76.28 0.0
02 11:35 E 13 16.09 Fair CLR 13.1 -0.3 40% 76.3 0.0
02 11:15 N 9 16.09 Fair CLR 12.7 0.5 43% 76.3 0.0
02 10:55 NE 11 16.09 Fair CLR 12.1 1 47% 76.33 0.0
02 10:35 N 15 16.09 Fair CLR 12.3 1.1 47% 76.33 0.0
02 10:15 N 11 16.09 Fair CLR 11.5 0.6 47% 76.3 0.0
02 09:55 Vrbl 7 16.09 A Few Clouds FEW180 10.9 1.9 54% 76.3 0.0
02 09:35 Vrbl 9 16.09 Partly Cloudy SCT180 10.6 2.8 59% 76.3 0.0
02 09:15 Calm 16.09 Mostly Cloudy BKN180 9.2 4 70% 76.3 0.0
02 08:55 Calm 16.09 Mostly Cloudy BKN180 BKN200 7.7 4.5 80% 76.3 0.0
02 08:35 Calm 16.09 Partly Cloudy SCT180 6.7 4.3 85% 76.3 0.0
02 08:15 Calm 16.09 Mostly Cloudy BKN180 5.9 4.1 88% 76.28 0.0
02 07:55 Calm 16.09 Overcast OVC170 4.7 4.1 8.1 3.2 96% 76.28 0.0
02 07:35 Calm 16.09 Overcast OVC170 3.9 3.2 95% 76.25 0.0
02 07:15 Calm 16.09 Overcast BKN170 OVC200 3.8 3.5 98% 76.25 0.0
02 06:55 Calm 14.48 Overcast OVC170 3.3 3 98% 76.25 0.0
02 06:35 S 6 16.09 Overcast OVC170 3.7 3 95% 76.25 0.0
02 06:15 N 7 16.09 Overcast BKN170 OVC200 3.6 3.3 98% 2 76.23 0.0
02 05:55 Calm 16.09 Fair CLR 3.4 3.1 98% 76.23 0.0
02 05:35 NW 6 16.09 Fair CLR 3.5 3.1 97% 76.23 0.0
02 05:15 Calm 16.09 Fair CLR 4.3 3.5 95% 76.2 0.0
02 04:55 N 6 16.09 Fair CLR 4.1 3.6 97% 76.25 0.0
02 04:35 NW 6 16.09 Fair CLR 4.3 3.6 95% 76.25 0.0
02 04:15 NW 6 16.09 Fair CLR 4.6 3.8 95% 76.28 0.0
02 03:55 Calm 16.09 Fair CLR 5 3.6 91% 76.25 0.0
02 03:35 Calm 16.09 Fair CLR 4.9 3.6 91% 76.25 0.0
02 03:15 Calm 16.09 Fair CLR 5.4 3.6 88% 76.23 0.0
02 02:55 NW 6 16.09 Partly Cloudy SCT220 6.2 3.3 82% 76.25 0.0
02 02:35 Calm 16.09 A Few Clouds FEW230 6.6 3.1 79% 76.25 0.0
02 02:15 NE 6 16.09 Fair CLR 7.6 2.8 72% 76.25 0.0
02 01:55 NE 7 16.09 Partly Cloudy SCT230 8 2.9 14.4 7.9 70% 7 76.28 0.0
02 01:35 NE 9 16.09 Mostly Cloudy BKN230 8.2 3 70% 7 76.28 0.0
02 01:15 N 9 16.09 A Few Clouds FEW240 8.4 2.9 69% 7 76.28 0.0
02 00:55 NE 13 16.09 Fair CLR 8.9 2.8 66% 7 76.28 0.0
02 00:35 NE 17 16.09 Fair CLR 9.1 2.9 65% 7 76.28 0.0
02 00:15 N 13 16.09 Fair CLR 9.6 2.9 63% 8 76.28 0.0
01 23:55 N 13 16.09 Partly Cloudy SCT065 10.1 2.9 61% 76.28 0.0
01 23:35 N 13 16.09 Overcast OVC065 10.4 2.8 60% 76.28 0.0
01 23:15 N 11 16.09 Mostly Cloudy BKN065 10.7 2.7 58% 76.28 0.0
01 22:55 N 9 16.09 Mostly Cloudy BKN065 10.9 2.5 56% 76.28 0.0
01 22:35 N 7 16.09 Overcast OVC065 11.1 2.6 56% 76.25 0.0
01 22:15 N 6 16.09 Overcast OVC065 11.4 3 57% 76.25 0.0
01 21:55 Calm 16.09 Mostly Cloudy BKN065 11.7 2.7 54% 76.23 0.0
01 21:35 N 9 16.09 Mostly Cloudy BKN065 12 2.7 53% 76.2 0.0
01 21:15 N 7 16.09 Mostly Cloudy BKN065 12.4 2.9 53% 76.15 0.0
01 20:55 N 9 16.09 Fair CLR 12.8 3.1 52% 76.1 0.0
01 20:35 N 6 16.09 Fair CLR 13.2 3.3 51% 76.07 0.0
01 20:15 NW 6 16.09 Fair CLR 13.9 3.2 49% 76.07 0.0
01 19:55 Vrbl 9 14.48 A Few Clouds FEW070 14.5 4.6 20.1 14.5 52% 76.05 0.0
01 19:35 NW 7 16.09 A Few Clouds FEW070 15 4.5 50% 76.02 0.0
01 19:15 NW 9 16.09 Fair CLR 15.1 5.3 52% 76.02 0.0
01 18:55 NW 19 14.48 Partly Cloudy FEW044 SCT055 15.9 5.8 51% 76.02 0.0
01 18:35 NW 17 16.09 Partly Cloudy FEW045 SCT065 16.1 6.2 52% 76.02 0.0
01 18:15 NW 9 16.09 Mostly Cloudy FEW047 BKN075 17 6.7 51% 76.02 0.0
01 17:55 Vrbl 11 16.09 Mostly Cloudy SCT045 SCT055 BKN070 BKN080 16.8 6.9 52% 76 0.0
01 17:35 Vrbl 11 16.09 Mostly Cloudy SCT055 BKN080 17.2 6.9 51% 76 0.0
01 17:15 NW 17 G 28 16.09 Mostly Cloudy FEW055 BKN075 17.8 6.2 47% 76 0.0
01 16:55 W 15 16.09 Partly Cloudy SCT075 18.6 4.7 40% 76 0.0
01 16:35 Vrbl 9 16.09 Mostly Cloudy BKN070 BKN085 19.4 5.1 39% 76 0.0
01 16:15 Vrbl 11 16.09 Mostly Cloudy BKN070 19.4 4.8 38% 76 0.0
01 15:55 W 15 16.09 Mostly Cloudy BKN070 18.6 3.9 38% 76.02 0.0
01 15:35 Vrbl 9 16.09 Partly Cloudy SCT070 19.1 4 37% 76.02 0.0
01 15:15 Vrbl 7 16.09 Mostly Cloudy BKN065 19.4 4.5 38% 76.02 0.0
01 14:55 W 9 G 28 16.09 Partly Cloudy SCT070 19.5 3.9 36% 76.02 0.0
01 14:35 NW 9 16.09 Partly Cloudy SCT070 19.1 3.6 36% 76.05 0.0
01 13:55 Vrbl 9 16.09 A Few Clouds FEW290 19.1 3.1 19.2 5.2 35% 76.05 0.0
01 13:35 W 19 G 28 14.48 Fair CLR 18.9 3.2 35% 76.07 0.0
01 13:15 W 13 16.09 A Few Clouds FEW060 18.4 3.5 37% 76.07 0.0
01 12:55 Vrbl 11 16.09 Fair CLR 17.9 3.1 37% 76.1 0.0
01 12:35 W 13 14.48 A Few Clouds FEW330 17.6 3.1 38% 76.12 0.0
01 12:15 Vrbl 9 16.09 A Few Clouds FEW340 17.4 2.5 37% 76.12 0.0
01 11:55 Vrbl 6 16.09 Fair CLR 17.2 3.2 39% 76.12 0.0
01 11:35 Vrbl 11 16.09 Fair CLR 16.4 3.2 41% 76.12 0.0
01 11:15 Vrbl 7 16.09 Fair CLR 16 4.1 45% 76.15 0.0
Date Time (edt) Wind (kph) Vis. (km) Weather Sky Cond. Air Dwpt Max. Min. Relative Humidity Wind Chill (°C) Heat Index (°C) altimeter (cm) sea level (mb) 1 hr 3 hr 6 hr
6 hour
Temperature (ºC) Pressure Precipitation (cm)